Time;durP1;ratioP1;P1;durP2;ratioP2;P2;SDS_P1;SDS_P2;PMS_P1;PMS_P2;Temp;Humidity;BMP_temperature;BMP_pressure;BME280_temperature;BME280_humidity;BME280_pressure;Samples;Min_cycle;Max_cycle;Signal;HPM_P1;HPM_P2
2023/04/17 00:01:11;;;;;;;0.20;0.20;;;;;;;15.03;61.79;102699.19;5030973;28;20125;-64
2023/04/17 00:03:37;;;;;;;0.20;0.20;;;;;;;14.60;63.18;102707.69;5030951;28;20130;-63
2023/04/17 00:06:03;;;;;;;0.20;0.20;;;;;;;15.45;61.08;102696.06;5029242;28;20417;-63
2023/04/17 00:08:28;;;;;;;0.10;0.10;;;;;;;16.23;58.12;102700.31;5030875;28;20056;-64
2023/04/17 00:10:53;;;;;;;0.10;0.10;;;;;;;14.61;62.40;102695.84;5031016;28;20105;-64
2023/04/17 00:13:19;;;;;;;0.30;0.30;;;;;;;13.81;65.63;102701.22;5031468;28;20100;-64
2023/04/17 00:15:44;;;;;;;0.32;0.32;;;;;;;15.04;62.90;102704.38;5030796;28;20033;-64
2023/04/17 00:18:09;;;;;;;0.20;0.20;;;;;;;15.54;59.60;102692.06;5031019;28;20040;-64
2023/04/17 00:20:35;;;;;;;0.10;0.10;;;;;;;15.86;59.23;102693.84;5030901;28;20125;-64
2023/04/17 00:23:00;;;;;;;0.20;0.20;;;;;;;16.39;57.61;102700.63;5030810;28;20033;-63
2023/04/17 00:25:26;;;;;;;0.20;0.20;;;;;;;15.57;59.55;102692.47;5031386;28;20109;-65
2023/04/17 00:27:51;;;;;;;0.30;0.30;;;;;;;15.50;60.43;102693.53;5029515;28;20444;-64
2023/04/17 00:30:16;;;;;;;0.20;0.20;;;;;;;15.61;59.28;102700.97;5030574;28;20121;-63
2023/04/17 00:32:42;;;;;;;0.28;0.28;;;;;;;15.50;59.41;102701.66;5030955;28;20060;-63
2023/04/17 00:35:07;;;;;;;0.30;0.30;;;;;;;14.63;62.54;102698.34;5017526;28;20033;-63
2023/04/17 00:37:34;;;;;;;0.10;0.10;;;;;;;15.62;59.46;102702.66;5011426;28;20018;-64
2023/04/17 00:40:00;;;;;;;0.20;0.20;;;;;;;15.82;58.76;102701.53;5011155;28;20049;-63
2023/04/17 00:42:26;;;;;;;0.15;0.15;;;;;;;16.44;56.81;102694.53;5011447;28;20030;-63
2023/04/17 00:44:51;;;;;;;0.20;0.20;;;;;;;16.14;58.24;102696.19;5011067;28;20034;-63
2023/04/17 00:47:17;;;;;;;0.30;0.30;;;;;;;16.01;58.11;102697.09;5011340;28;20030;-64
2023/04/17 00:49:43;;;;;;;0.20;0.20;;;;;;;14.72;62.78;102700.63;5016728;28;20048;-63
2023/04/17 00:52:08;;;;;;;0.20;0.20;;;;;;;13.65;65.95;102696.16;5030508;28;20553;-64
2023/04/17 00:54:34;;;;;;;0.20;0.20;;;;;;;14.59;63.56;102687.09;5030429;28;20042;-64
2023/04/17 00:57:01;;;;;;;0.20;0.20;;;;;;;14.81;62.60;102690.44;5030392;28;20080;-64
2023/04/17 00:59:27;;;;;;;0.45;0.45;;;;;;;15.10;61.22;102690.00;5030547;28;20397;-64
2023/04/17 01:01:52;;;;;;;0.30;0.30;;;;;;;14.62;64.08;102686.69;5044675;28;20037;-63
2023/04/17 01:04:17;;;;;;;0.20;0.20;;;;;;;14.45;64.72;102692.69;5051123;28;20120;-64
2023/04/17 01:06:43;;;;;;;0.20;0.20;;;;;;;14.23;64.48;102705.50;5050807;28;20116;-63
2023/04/17 01:09:08;;;;;;;0.10;0.10;;;;;;;14.56;64.01;102700.22;5050612;28;20124;-63
2023/04/17 01:11:34;;;;;;;0.20;0.20;;;;;;;14.98;62.78;102703.34;5050786;28;20060;-64
2023/04/17 01:13:59;;;;;;;0.10;0.10;;;;;;;15.37;60.37;102698.94;5050568;28;20108;-65
2023/04/17 01:16:25;;;;;;;0.20;0.20;;;;;;;15.06;61.69;102706.88;5034492;28;20037;-63
2023/04/17 01:18:50;;;;;;;0.40;0.40;;;;;;;15.54;60.82;102701.03;5031265;28;20034;-65
2023/04/17 01:21:16;;;;;;;0.20;0.20;;;;;;;15.25;61.06;102704.16;5033887;28;20087;-64
2023/04/17 01:23:44;;;;;;;0.20;0.20;;;;;;;15.42;60.53;102704.59;5033647;28;20029;-63
2023/04/17 01:26:15;;;;;;;0.20;0.20;;;;;;;15.21;61.76;102704.81;5033819;28;20473;-63
2023/04/17 01:28:40;;;;;;;0.20;0.20;;;;;;;15.01;62.79;102709.41;5034175;28;20029;-63
2023/04/17 01:31:06;;;;;;;0.10;0.10;;;;;;;13.35;67.97;102716.31;5033651;28;20044;-63
2023/04/17 01:33:31;;;;;;;0.30;0.30;;;;;;;13.70;68.55;102711.75;5034079;28;20401;-64
2023/04/17 01:35:56;;;;;;;0.20;0.20;;;;;;;14.38;64.77;102711.63;5033849;28;20517;-63
2023/04/17 01:38:22;;;;;;;0.30;0.30;;;;;;;14.22;65.99;102719.25;5033614;28;20237;-63
2023/04/17 01:40:47;;;;;;;0.40;0.40;;;;;;;13.92;67.19;102719.53;5032054;28;20437;-63
2023/04/17 01:43:12;;;;;;;0.20;0.20;;;;;;;13.69;68.37;102720.88;5034029;28;20453;-63
2023/04/17 01:45:38;;;;;;;0.28;0.28;;;;;;;14.68;64.46;102714.81;5033382;28;20128;-64
2023/04/17 01:48:03;;;;;;;0.20;0.20;;;;;;;15.31;62.50;102721.47;5033477;28;20034;-64
2023/04/17 01:50:28;;;;;;;0.30;0.30;;;;;;;15.28;62.15;102721.88;5033433;28;20048;-64
2023/04/17 01:52:54;;;;;;;0.25;0.25;;;;;;;14.78;63.69;102726.88;5033442;28;20108;-63
2023/04/17 01:55:19;;;;;;;0.20;0.20;;;;;;;14.50;64.54;102725.38;5033148;28;20038;-64
2023/04/17 01:57:44;;;;;;;0.30;0.30;;;;;;;13.89;67.54;102722.66;5032603;28;20045;-63
2023/04/17 02:00:10;;;;;;;0.32;0.32;;;;;;;14.28;64.66;102727.41;5032980;28;20407;-63
2023/04/17 02:02:36;;;;;;;0.40;0.40;;;;;;;14.43;64.13;102729.94;5033005;28;20030;-62
2023/04/17 02:05:01;;;;;;;0.30;0.30;;;;;;;14.71;64.25;102726.03;5033270;28;20128;-63
2023/04/17 02:07:26;;;;;;;0.30;0.30;;;;;;;14.41;64.83;102734.72;5033867;28;20116;-63
2023/04/17 02:09:52;;;;;;;0.20;0.20;;;;;;;15.36;61.75;102727.06;5033026;28;20125;-63
2023/04/17 02:12:18;;;;;;;0.20;0.20;;;;;;;14.33;65.28;102732.22;5032875;28;20072;-63
2023/04/17 02:14:43;;;;;;;0.13;0.13;;;;;;;13.88;66.98;102729.09;5033278;28;20045;-63
2023/04/17 02:17:08;;;;;;;0.20;0.20;;;;;;;13.96;66.56;102734.31;5015184;28;20457;-63
2023/04/17 02:19:34;;;;;;;0.30;0.30;;;;;;;14.13;66.03;102733.97;5033661;28;20120;-64
2023/04/17 02:21:59;;;;;;;0.30;0.30;;;;;;;15.29;62.97;102727.06;5033243;28;20038;-64
2023/04/17 02:24:24;;;;;;;0.20;0.20;;;;;;;15.17;62.93;102730.63;5032864;28;20116;-64
2023/04/17 02:26:50;;;;;;;0.30;0.30;;;;;;;14.36;65.16;102727.22;5015267;28;20547;-64
2023/04/17 02:29:15;;;;;;;0.30;0.30;;;;;;;15.01;63.68;102734.59;5015284;28;20060;-63
2023/04/17 02:31:40;;;;;;;0.20;0.20;;;;;;;15.11;62.54;102732.31;5033158;28;20091;-63
2023/04/17 02:34:06;;;;;;;0.20;0.20;;;;;;;14.08;67.00;102737.28;5032788;28;20120;-63
2023/04/17 02:36:31;;;;;;;0.25;0.25;;;;;;;13.98;66.45;102734.97;5032863;28;20067;-63
2023/04/17 02:38:56;;;;;;;0.20;0.20;;;;;;;15.03;62.79;102732.53;5032255;28;20065;-63
2023/04/17 02:41:22;;;;;;;0.10;0.10;;;;;;;15.11;62.95;102731.47;5032457;28;20119;-63
2023/04/17 02:43:47;;;;;;;0.30;0.30;;;;;;;15.24;62.70;102736.88;5032837;28;20049;-63
2023/04/17 02:46:12;;;;;;;0.20;0.20;;;;;;;15.04;63.18;102730.63;5032625;28;20079;-63
2023/04/17 02:48:38;;;;;;;0.28;0.28;;;;;;;14.32;64.73;102728.69;5032261;28;20037;-63
2023/04/17 02:51:03;;;;;;;0.10;0.10;;;;;;;14.54;64.89;102724.78;5032349;28;20095;-63
2023/04/17 02:53:29;;;;;;;0.40;0.40;;;;;;;13.70;67.64;102731.47;5031960;28;20037;-64
2023/04/17 02:55:54;;;;;;;0.30;0.30;;;;;;;13.82;69.50;102729.06;5031948;28;20060;-63
2023/04/17 02:58:19;;;;;;;0.20;0.20;;;;;;;14.81;64.87;102720.22;5032903;28;20100;-64
2023/04/17 03:00:45;;;;;;;0.20;0.20;;;;;;;14.77;64.42;102724.38;5031945;28;20129;-63
2023/04/17 03:03:10;;;;;;;0.30;0.30;;;;;;;14.94;63.47;102721.06;5032329;28;20034;-63
2023/04/17 03:05:36;;;;;;;0.32;0.32;;;;;;;14.91;64.24;102723.34;5014381;28;20083;-64
2023/04/17 03:08:02;;;;;;;0.20;0.20;;;;;;;14.52;66.00;102732.25;5031760;28;20057;-64
2023/04/17 03:10:28;;;;;;;0.30;0.30;;;;;;;15.23;63.60;102727.94;5032541;28;20026;-64
2023/04/17 03:12:53;;;;;;;0.30;0.30;;;;;;;14.82;63.83;102730.84;5031702;28;20572;-64
2023/04/17 03:15:18;;;;;;;0.20;0.20;;;;;;;15.10;63.35;102722.50;5031860;28;20503;-64
2023/04/17 03:17:44;;;;;;;0.20;0.20;;;;;;;15.62;61.34;102729.78;5031836;28;20047;-64
2023/04/17 03:20:10;;;;;;;0.30;0.30;;;;;;;14.30;66.19;102729.91;5031770;28;20442;-64
2023/04/17 03:22:35;;;;;;;0.30;0.30;;;;;;;13.87;67.92;102735.53;5032306;28;20041;-63
2023/04/17 03:25:01;;;;;;;0.35;0.35;;;;;;;15.10;63.61;102738.75;5031602;28;20068;-63
2023/04/17 03:27:26;;;;;;;0.30;0.30;;;;;;;15.08;62.89;102740.00;5031827;28;20041;-63
2023/04/17 03:29:55;;;;;;;0.30;0.30;;;;;;;15.57;61.83;102740.41;5031704;28;20033;-63
2023/04/17 03:32:20;;;;;;;0.30;0.30;;;;;;;14.97;63.52;102741.47;5031648;28;20037;-63
2023/04/17 03:34:46;;;;;;;0.22;0.22;;;;;;;15.66;61.53;102729.09;5031832;28;20029;-63
2023/04/17 03:37:11;;;;;;;0.20;0.20;;;;;;;15.03;63.60;102737.09;5031621;28;20129;-64
2023/04/17 03:39:36;;;;;;;0.25;0.25;;;;;;;14.86;64.01;102740.22;5031543;28;20365;-64
2023/04/17 03:42:02;;;;;;;0.20;0.20;;;;;;;15.16;63.31;102737.94;5013319;28;20132;-63
2023/04/17 03:44:27;;;;;;;0.20;0.20;;;;;;;14.22;66.04;102735.47;5031569;28;20542;-64
2023/04/17 03:46:52;;;;;;;0.22;0.22;;;;;;;14.60;65.69;102739.34;5012980;28;20051;-63
2023/04/17 03:49:18;;;;;;;0.20;0.20;;;;;;;15.41;62.80;102732.72;5035820;28;20139;-63
2023/04/17 03:51:43;;;;;;;0.47;0.20;;;;;;;14.70;64.92;102737.91;5034390;28;20049;-64
2023/04/17 03:54:09;;;;;;;0.20;0.20;;;;;;;15.44;63.00;102735.00;5031402;28;20041;-63
2023/04/17 03:56:34;;;;;;;0.32;0.32;;;;;;;15.77;61.98;102738.47;5031132;28;20128;-64
2023/04/17 03:59:00;;;;;;;0.30;0.30;;;;;;;15.89;61.12;102734.06;5031378;28;20053;-64
2023/04/17 04:01:28;;;;;;;0.10;0.10;;;;;;;16.24;60.14;102737.25;5031519;28;20076;-63
2023/04/17 04:03:54;;;;;;;0.20;0.20;;;;;;;15.25;62.96;102733.94;5031005;28;20033;-63
2023/04/17 04:06:21;;;;;;;0.20;0.20;;;;;;;15.22;63.47;102731.66;5030886;28;20515;-63
2023/04/17 04:08:47;;;;;;;0.20;0.20;;;;;;;15.70;61.66;102726.84;5030875;28;20072;-63
2023/04/17 04:11:13;;;;;;;0.13;0.13;;;;;;;15.70;61.02;102724.94;5030921;28;20029;-64
2023/04/17 04:13:38;;;;;;;0.30;0.30;;;;;;;14.82;64.21;102733.53;5031446;28;20477;-63
2023/04/17 04:16:04;;;;;;;0.45;0.45;;;;;;;15.31;62.56;102737.72;5030813;28;20128;-63
2023/04/17 04:18:29;;;;;;;0.20;0.20;;;;;;;15.33;63.04;102741.84;5031132;28;20474;-63
2023/04/17 04:20:54;;;;;;;0.20;0.20;;;;;;;14.85;63.73;102732.31;5013004;28;20038;-63
2023/04/17 04:23:20;;;;;;;0.20;0.20;;;;;;;15.07;63.91;102736.47;5030799;28;20481;-63
2023/04/17 04:25:48;;;;;;;0.20;0.20;;;;;;;14.15;66.54;102729.22;5031054;28;20044;-63
2023/04/17 04:28:13;;;;;;;0.22;0.22;;;;;;;15.19;63.10;102737.53;5031098;28;20056;-64
2023/04/17 04:30:39;;;;;;;0.20;0.20;;;;;;;15.48;62.01;102736.25;5030628;28;20034;-63
2023/04/17 04:33:04;;;;;;;0.22;0.22;;;;;;;14.85;63.39;102741.25;5030645;28;20041;-64
2023/04/17 04:35:30;;;;;;;0.20;0.20;;;;;;;14.68;64.18;102744.56;5014397;28;20199;-64
2023/04/17 04:38:00;;;;;;;0.25;0.25;;;;;;;14.44;64.85;102747.84;5011110;28;20369;-64
2023/04/17 04:40:34;;;;;;;0.20;0.20;;;;;;;15.29;63.02;102747.94;5011686;28;20088;-63
2023/04/17 04:43:00;;;;;;;0.20;0.20;;;;;;;14.95;62.88;102747.09;5014815;28;20061;-64
2023/04/17 04:45:25;;;;;;;0.20;0.20;;;;;;;14.94;63.03;102750.00;5045134;28;20135;-64
2023/04/17 04:47:50;;;;;;;0.28;0.28;;;;;;;15.11;62.41;102753.97;5043098;28;20053;-63
2023/04/17 04:50:16;;;;;;;0.20;0.20;;;;;;;15.60;61.08;102756.25;5046041;28;20159;-63
2023/04/17 04:52:41;;;;;;;0.30;0.30;;;;;;;14.75;63.52;102761.66;5027333;28;20025;-64
2023/04/17 04:55:07;;;;;;;0.20;0.20;;;;;;;15.44;61.54;102752.09;5024803;28;20112;-64
2023/04/17 04:57:33;;;;;;;0.20;0.20;;;;;;;15.46;61.37;102751.88;5044195;28;20041;-64
2023/04/17 04:59:58;;;;;;;0.30;0.30;;;;;;;14.45;64.69;102760.31;5041733;28;20080;-64
2023/04/17 05:02:24;;;;;;;0.20;0.20;;;;;;;14.68;63.74;102755.41;5039181;28;20132;-64
2023/04/17 05:04:50;;;;;;;0.30;0.30;;;;;;;15.33;61.37;102763.53;5035199;28;20511;-66
2023/04/17 05:07:16;;;;;;;0.30;0.30;;;;;;;15.48;61.64;102757.94;5041692;28;20032;-64
2023/04/17 05:09:41;;;;;;;0.20;0.20;;;;;;;15.51;60.62;102760.22;5035460;28;20100;-65
2023/04/17 05:12:07;;;;;;;0.30;0.30;;;;;;;15.11;61.83;102770.22;5037762;28;20117;-64
2023/04/17 05:14:32;;;;;;;0.10;0.10;;;;;;;15.21;61.88;102770.66;5015220;28;20041;-64
2023/04/17 05:16:57;;;;;;;0.20;0.20;;;;;;;14.79;62.20;102774.56;5029677;28;20116;-65
2023/04/17 05:19:23;;;;;;;0.22;0.22;;;;;;;15.01;61.70;102782.50;5036080;28;20040;-64
2023/04/17 05:21:48;;;;;;;0.10;0.10;;;;;;;15.23;61.33;102782.09;5032689;28;20484;-64
2023/04/17 05:24:14;;;;;;;0.13;0.13;;;;;;;15.36;60.82;102784.81;5040265;28;20537;-65
2023/04/17 05:26:39;;;;;;;0.30;0.30;;;;;;;14.66;62.48;102789.94;5032836;28;20037;-65
2023/04/17 05:29:05;;;;;;;0.30;0.30;;;;;;;14.11;65.16;102790.97;5033151;28;20075;-65
2023/04/17 05:31:30;;;;;;;0.30;0.30;;;;;;;14.83;63.84;102797.47;5033105;28;20029;-65
2023/04/17 05:33:56;;;;;;;0.20;0.20;;;;;;;15.05;62.81;102800.84;5032600;28;20120;-64
2023/04/17 05:36:21;;;;;;;0.30;0.30;;;;;;;15.61;60.33;102801.25;5032755;28;20065;-64
2023/04/17 05:38:47;;;;;;;0.20;0.20;;;;;;;15.71;60.01;102797.09;5032784;28;20078;-63
2023/04/17 05:41:13;;;;;;;0.22;0.22;;;;;;;15.64;60.02;102795.44;5032495;28;20044;-64
2023/04/17 05:43:38;;;;;;;0.17;0.17;;;;;;;14.59;63.49;102791.78;5029537;28;20040;-65
2023/04/17 05:46:04;;;;;;;0.10;0.10;;;;;;;15.52;60.80;102795.25;5032678;28;20090;-66
2023/04/17 05:48:30;;;;;;;0.30;0.30;;;;;;;15.78;59.23;102792.47;5032221;28;20042;-63
2023/04/17 05:50:55;;;;;;;0.20;0.20;;;;;;;14.42;64.84;102801.31;5033178;28;20117;-65
2023/04/17 05:53:20;;;;;;;0.20;0.20;;;;;;;15.35;61.44;102801.28;5033128;28;20043;-64
2023/04/17 05:55:46;;;;;;;0.20;0.20;;;;;;;14.82;62.51;102794.94;5033219;28;20478;-64
2023/04/17 05:58:11;;;;;;;0.10;0.10;;;;;;;15.46;60.79;102811.50;5017227;28;20042;-64
2023/04/17 06:00:36;;;;;;;0.17;0.17;;;;;;;15.64;60.01;102799.00;5021396;28;20498;-65
2023/04/17 06:03:02;;;;;;;0.20;0.20;;;;;;;15.32;60.43;102805.22;5012671;28;20054;-64
2023/04/17 06:05:28;;;;;;;0.20;0.20;;;;;;;15.47;60.33;102811.28;5015889;28;20051;-64
2023/04/17 06:07:53;;;;;;;0.20;0.20;;;;;;;16.11;58.38;102814.09;5012924;28;20030;-63
2023/04/17 06:10:19;;;;;;;0.20;0.20;;;;;;;16.14;58.27;102816.38;5013691;28;20120;-65
2023/04/17 06:12:44;;;;;;;0.10;0.10;;;;;;;16.19;57.70;102815.72;5032612;28;20068;-64
2023/04/17 06:15:10;;;;;;;0.30;0.30;;;;;;;15.75;59.31;102822.72;5025415;28;20042;-63
2023/04/17 06:17:36;;;;;;;0.22;0.22;;;;;;;15.96;58.42;102816.22;5023474;28;20201;-63
2023/04/17 06:20:05;;;;;;;0.20;0.20;;;;;;;15.18;60.96;102818.94;5016555;28;20037;-64
2023/04/17 06:22:31;;;;;;;0.20;0.20;;;;;;;15.78;58.49;102819.56;5014811;28;20022;-64
2023/04/17 06:24:56;;;;;;;0.20;0.20;;;;;;;15.37;60.37;102821.66;5026814;28;20061;-63
2023/04/17 06:27:22;;;;;;;0.30;0.30;;;;;;;14.57;63.77;102827.16;5021716;28;20042;-64
2023/04/17 06:29:47;;;;;;;0.30;0.30;;;;;;;15.42;60.19;102832.75;5019906;28;20057;-64
2023/04/17 06:32:12;;;;;;;0.30;0.30;;;;;;;15.28;61.89;102832.94;5028397;28;20107;-63
2023/04/17 06:34:38;;;;;;;0.20;0.20;;;;;;;15.42;60.73;102829.22;4984690;28;20133;-63
2023/04/17 06:37:03;;;;;;;0.10;0.10;;;;;;;15.59;59.66;102828.59;5018911;28;20060;-64
2023/04/17 06:39:30;;;;;;;0.30;0.30;;;;;;;15.30;61.06;102842.53;5010703;28;20128;-63
2023/04/17 06:41:57;;;;;;;0.40;0.40;;;;;;;14.30;63.62;102838.94;5004556;28;20158;-64
2023/04/17 06:44:22;;;;;;;0.28;0.28;;;;;;;15.50;60.44;102839.84;5017895;28;20095;-64
2023/04/17 06:46:51;;;;;;;0.22;0.22;;;;;;;16.11;58.11;102845.81;5009085;28;20029;-64
2023/04/17 06:49:16;;;;;;;0.20;0.20;;;;;;;15.95;59.31;102852.50;5009850;28;20017;-64
2023/04/17 06:51:44;;;;;;;0.20;0.20;;;;;;;16.10;58.75;102857.69;5008985;28;20040;-64
2023/04/17 06:54:10;;;;;;;0.20;0.20;;;;;;;15.80;59.38;102854.63;5008714;28;20041;-65
2023/04/17 06:56:35;;;;;;;0.20;0.20;;;;;;;15.14;61.28;102847.50;5017106;28;20050;-66
2023/04/17 06:59:01;;;;;;;0.20;0.20;;;;;;;15.44;60.33;102852.34;5027976;28;20465;-66
2023/04/17 07:01:28;;;;;;;0.40;0.40;;;;;;;15.10;61.55;102865.19;5032067;28;20506;-65
2023/04/17 07:03:53;;;;;;;0.20;0.20;;;;;;;14.28;64.19;102865.34;5008237;28;20045;-63
2023/04/17 07:06:18;;;;;;;0.20;0.20;;;;;;;15.78;59.96;102859.44;5029519;28;20022;-64
2023/04/17 07:08:44;;;;;;;0.20;0.20;;;;;;;14.64;63.25;102859.66;5028776;28;20338;-63
2023/04/17 07:11:09;;;;;;;0.28;0.28;;;;;;;15.82;59.35;102869.63;5026820;28;20108;-64
2023/04/17 07:13:35;;;;;;;0.20;0.20;;;;;;;15.42;60.76;102869.84;5028968;28;20048;-63
2023/04/17 07:16:00;;;;;;;0.20;0.20;;;;;;;15.64;60.91;102872.16;5029625;28;20026;-63
2023/04/17 07:18:28;;;;;;;0.20;0.20;;;;;;;15.57;60.15;102875.91;5029409;28;20034;-65
2023/04/17 07:20:54;;;;;;;0.22;0.22;;;;;;;15.31;61.51;102881.28;5030245;28;20120;-64
2023/04/17 07:23:19;;;;;;;0.20;0.20;;;;;;;15.71;59.70;102880.28;5031510;28;20029;-64
2023/04/17 07:25:44;;;;;;;0.30;0.30;;;;;;;16.30;57.52;102883.72;5030504;28;20477;-63
2023/04/17 07:28:10;;;;;;;0.20;0.20;;;;;;;16.14;58.20;102892.31;5031473;28;20053;-65
2023/04/17 07:30:35;;;;;;;0.10;0.10;;;;;;;16.44;58.26;102881.81;5029327;28;20037;-64
2023/04/17 07:33:01;;;;;;;0.20;0.20;;;;;;;15.18;62.00;102887.50;5029582;28;20033;-66
2023/04/17 07:35:27;;;;;;;0.10;0.10;;;;;;;15.43;60.91;102894.03;5028783;28;20528;-66
2023/04/17 07:37:52;;;;;;;0.10;0.10;;;;;;;15.81;60.94;102883.41;5029752;28;20025;-64
2023/04/17 07:40:18;;;;;;;0.20;0.20;;;;;;;15.99;59.20;102886.31;5029844;28;20025;-64
2023/04/17 07:42:43;;;;;;;0.17;0.17;;;;;;;15.04;62.97;102887.66;5042554;28;20509;-63
2023/04/17 07:45:09;;;;;;;0.28;0.28;;;;;;;15.00;62.44;102886.44;5049124;28;20036;-63
2023/04/17 07:47:35;;;;;;;0.20;0.20;;;;;;;15.09;62.64;102879.78;5047920;28;20051;-64
2023/04/17 07:50:01;;;;;;;0.20;0.20;;;;;;;15.10;63.71;102876.03;5036453;28;20045;-64
2023/04/17 07:52:26;;;;;;;0.20;0.20;;;;;;;16.32;58.34;102881.63;5029968;28;20538;-63
2023/04/17 07:54:52;;;;;;;0.20;0.20;;;;;;;16.93;56.57;102876.59;5031486;28;20106;-64
2023/04/17 07:57:17;;;;;;;0.30;0.30;;;;;;;15.50;61.17;102878.63;5048975;28;20044;-64
2023/04/17 07:59:43;;;;;;;0.30;0.30;;;;;;;16.93;57.55;102883.91;5035248;28;20064;-65
2023/04/17 08:02:08;;;;;;;0.20;0.20;;;;;;;16.67;57.92;102879.44;5028995;28;20034;-64
2023/04/17 08:04:34;;;;;;;0.20;0.20;;;;;;;16.38;58.19;102886.22;5029708;28;20680;-64
2023/04/17 08:06:59;;;;;;;0.10;0.10;;;;;;;17.03;56.69;102881.53;5029582;28;20033;-65
2023/04/17 08:09:25;;;;;;;0.17;0.17;;;;;;;16.10;59.84;102882.09;5047002;28;20057;-65
2023/04/17 08:11:50;;;;;;;0.13;0.13;;;;;;;17.58;55.66;102878.06;5028106;28;20038;-64
2023/04/17 08:14:19;;;;;;;0.10;0.10;;;;;;;17.82;54.51;102885.38;5040498;28;20036;-65
2023/04/17 08:16:47;;;;;;;0.20;0.20;;;;;;;17.38;55.55;102883.63;5020544;28;20033;-63
2023/04/17 08:19:12;;;;;;;0.20;0.20;;;;;;;15.83;59.36;102886.72;5029764;28;20136;-65
2023/04/17 08:21:38;;;;;;;0.20;0.20;;;;;;;16.74;58.60;102884.84;5049416;28;20112;-64
2023/04/17 08:24:04;;;;;;;0.13;0.13;;;;;;;16.79;57.00;102893.16;5031320;28;20396;-65
2023/04/17 08:26:29;;;;;;;0.15;0.15;;;;;;;17.47;54.71;102886.91;5049456;28;20029;-64
2023/04/17 08:28:55;;;;;;;0.20;0.20;;;;;;;16.79;57.30;102882.31;5052187;28;20417;-64
2023/04/17 08:31:20;;;;;;;0.20;0.20;;;;;;;15.95;59.76;102879.63;5041413;28;20036;-63
2023/04/17 08:33:46;;;;;;;0.20;0.20;;;;;;;16.42;58.14;102882.03;5047584;28;20028;-66
2023/04/17 08:36:11;;;;;;;0.20;0.20;;;;;;;17.87;53.92;102890.13;5033497;28;20052;-63
2023/04/17 08:38:36;;;;;;;0.20;0.20;;;;;;;19.20;51.43;102881.84;5015158;28;20034;-65
2023/04/17 08:41:06;;;;;;;0.10;0.10;;;;;;;18.25;52.15;102890.78;5031841;28;20051;-65
2023/04/17 08:43:34;;;;;;;0.20;0.20;;;;;;;18.00;53.92;102901.75;5032483;28;20017;-63
2023/04/17 08:46:00;;;;;;;0.10;0.10;;;;;;;17.55;55.43;102897.53;5032023;28;20500;-65
2023/04/17 08:48:26;;;;;;;0.20;0.20;;;;;;;17.62;55.28;102898.31;5032594;28;20044;-64
2023/04/17 08:50:52;;;;;;;0.10;0.10;;;;;;;18.37;53.13;102898.00;5041241;28;20083;-63
2023/04/17 08:53:18;;;;;;;0.20;0.20;;;;;;;18.55;53.26;102896.34;5052867;28;20025;-66
2023/04/17 08:55:45;;;;;;;0.17;0.17;;;;;;;18.11;53.91;102905.59;5053299;28;20033;-64
2023/04/17 08:58:12;;;;;;;0.10;0.10;;;;;;;17.96;54.13;102902.41;5038165;28;20108;-64
2023/04/17 09:00:42;;;;;;;0.20;0.20;;;;;;;17.72;55.15;102900.53;5052331;28;20028;-64
2023/04/17 09:03:11;;;;;;;;;;;;;;;17.41;55.03;102907.63;5053195;28;20035;-64
2023/04/17 09:05:40;;;;;;;0.10;0.10;;;;;;;16.77;58.32;102908.84;5052690;28;20389;-66
2023/04/17 09:08:11;;;;;;;0.22;0.22;;;;;;;17.11;57.08;102903.03;5036036;28;20041;-64
2023/04/17 09:10:42;;;;;;;0.20;0.20;;;;;;;18.58;53.64;102904.88;5038368;28;20076;-63
2023/04/17 09:13:09;;;;;;;0.13;0.13;;;;;;;18.61;53.26;102901.72;5036350;28;20029;-63
2023/04/17 09:15:35;;;;;;;0.30;0.30;;;;;;;18.40;52.19;102902.13;5037989;28;20441;-64
2023/04/17 09:18:01;;;;;;;0.10;0.10;;;;;;;17.60;55.60;102905.84;5037383;28;20447;-66
2023/04/17 09:20:27;;;;;;;0.20;0.20;;;;;;;18.56;53.03;102907.00;5045378;28;20489;-65
2023/04/17 09:23:03;;;;;;;0.20;0.20;;;;;;;18.97;53.02;102909.81;5036265;28;20026;-64
2023/04/17 09:25:29;;;;;;;0.20;0.20;;;;;;;20.09;49.47;102911.59;5036940;28;20511;-65
2023/04/17 09:28:07;;;;;;;0.10;0.10;;;;;;;19.93;49.80;102902.25;5047866;28;20071;-64
2023/04/17 09:30:36;;;;;;;0.20;0.20;;;;;;;19.61;50.06;102900.09;5051970;28;20086;-63
2023/04/17 09:33:03;;;;;;;0.20;0.20;;;;;;;18.67;52.15;102903.50;5042687;28;20029;-66
2023/04/17 09:35:28;;;;;;;0.22;0.22;;;;;;;19.62;50.28;102897.13;5049420;28;20111;-65
2023/04/17 09:37:57;;;;;;;0.13;0.13;;;;;;;20.02;49.23;102892.66;5051880;28;20556;-66
2023/04/17 09:40:24;;;;;;;0.17;0.17;;;;;;;19.28;50.90;102897.88;5046697;28;20030;-65
2023/04/17 09:42:53;;;;;;;0.10;0.10;;;;;;;18.33;54.03;102899.50;5035218;28;20038;-65
2023/04/17 09:45:19;;;;;;;0.10;0.10;;;;;;;19.24;50.82;102896.66;5035492;28;20040;-63
2023/04/17 09:47:49;;;;;;;0.10;0.10;;;;;;;19.74;49.20;102900.69;5038416;28;20036;-63
2023/04/17 09:50:20;;;;;;;0.10;0.10;;;;;;;19.91;48.92;102889.91;5027857;28;20053;-63
2023/04/17 09:52:48;;;;;;;0.20;0.20;;;;;;;20.95;46.59;102895.19;5036294;28;20107;-65
2023/04/17 09:55:16;;;;;;;0.20;0.20;;;;;;;20.18;47.39;102902.00;5010382;28;20042;-64
2023/04/17 09:57:41;;;;;;;0.17;0.17;;;;;;;19.27;49.97;102897.03;5030886;28;20045;-64
2023/04/17 10:00:13;;;;;;;0.20;0.20;;;;;;;18.59;52.35;102909.28;5051510;28;20049;-64
2023/04/17 10:02:41;;;;;;;0.20;0.20;;;;;;;19.46;50.47;102902.44;5051326;28;20662;-64
2023/04/17 10:05:09;;;;;;;0.20;0.20;;;;;;;19.25;50.77;102895.59;5051879;28;20032;-64
2023/04/17 10:07:35;;;;;;;0.10;0.10;;;;;;;19.89;50.28;102898.31;5050896;28;20017;-65
2023/04/17 10:10:07;;;;;;;0.20;0.20;;;;;;;19.69;50.47;102903.31;5017751;28;20079;-64
2023/04/17 10:12:35;;;;;;;0.15;0.15;;;;;;;20.42;48.28;102905.56;5023691;28;20116;-66
2023/04/17 10:15:02;;;;;;;0.10;0.10;;;;;;;21.50;46.23;102895.41;5031345;28;20433;-64
2023/04/17 10:17:33;;;;;;;0.15;0.15;;;;;;;21.45;45.93;102890.66;5031312;28;20053;-63
2023/04/17 10:20:16;;;;;;;;;;;;;;;22.16;43.94;102889.06;5029500;28;20034;-66
2023/04/17 10:22:42;;;;;;;0.17;0.17;;;;;;;22.56;43.45;102879.44;5048895;28;19936;-65
2023/04/17 10:25:11;;;;;;;0.10;0.10;;;;;;;21.83;43.59;102879.84;5029692;28;20164;-64
2023/04/17 10:27:36;;;;;;;0.20;0.20;;;;;;;20.85;45.76;102887.59;5051081;28;20531;-62
2023/04/17 10:30:04;;;;;;;0.20;0.20;;;;;;;21.21;45.61;102891.88;5050813;28;20029;-65
2023/04/17 10:32:31;;;;;;;0.10;0.10;;;;;;;20.44;48.44;102885.13;5049732;28;20039;-64
2023/04/17 10:34:59;;;;;;;0.20;0.20;;;;;;;20.63;48.13;102888.53;5038617;28;20025;-64
2023/04/17 10:37:45;;;;;;;0.10;0.10;;;;;;;22.15;43.49;102876.47;5050832;28;20100;-63
2023/04/17 10:40:16;;;;;;;0.10;0.10;;;;;;;20.96;45.62;102874.97;5041237;28;20045;-64
2023/04/17 10:43:00;;;;;;;;;;;;;;;21.28;44.77;102875.31;5049229;28;20048;-63
2023/04/17 10:46:00;;;;;;;0.17;0.17;;;;;;;19.70;49.73;102885.03;5050668;28;19974;-64
2023/04/17 10:48:39;;;;;;;0.10;0.10;;;;;;;20.43;47.70;102879.91;5044421;28;20041;-64
2023/04/17 10:51:20;;;;;;;0.10;0.10;;;;;;;21.11;45.51;102875.28;5050794;28;20380;-64
2023/04/17 10:53:47;;;;;;;0.10;0.10;;;;;;;21.92;43.47;102871.16;5050694;28;20044;-65
2023/04/17 10:56:18;;;;;;;0.10;0.10;;;;;;;22.04;42.44;102874.63;5044732;28;20376;-66
2023/04/17 10:59:04;;;;;;;0.10;0.10;;;;;;;23.12;40.91;102866.38;5051156;28;20106;-65
2023/04/17 11:01:36;;;;;;;0.10;0.10;;;;;;;22.51;41.46;102867.59;5050546;28;20506;-65
2023/04/17 11:04:05;;;;;;;0.20;0.20;;;;;;;21.95;43.87;102873.41;5048533;28;20491;-65
2023/04/17 11:06:32;;;;;;;0.10;0.10;;;;;;;22.55;41.58;102863.25;5050140;28;20037;-65
2023/04/17 11:08:58;;;;;;;0.10;0.10;;;;;;;22.36;40.83;102867.41;5050568;28;20538;-67
2023/04/17 11:11:25;;;;;;;0.10;0.10;;;;;;;22.50;42.09;102865.97;5044614;28;20121;-65
2023/04/17 11:13:50;;;;;;;0.10;0.10;;;;;;;23.14;40.39;102859.56;5050310;28;20048;-66
2023/04/17 11:16:18;;;;;;;0.10;0.10;;;;;;;22.75;40.57;102858.06;5050558;28;20254;-63
2023/04/17 11:18:43;;;;;;;0.10;0.10;;;;;;;23.40;39.70;102860.66;5049922;28;20033;-64
2023/04/17 11:21:11;;;;;;;0.10;0.10;;;;;;;23.40;39.42;102861.47;5046062;28;20503;-64
2023/04/17 11:23:37;;;;;;;0.10;0.10;;;;;;;22.98;39.35;102867.88;5041082;28;20057;-66